createdAt,value
2017-07-20T00:02:03.526Z,86.30
2017-07-20T00:04:29.625Z,86.10
2017-07-20T00:06:55.720Z,86.50
2017-07-20T00:09:21.841Z,86.60
2017-07-20T00:11:47.928Z,86.40
2017-07-20T00:14:14.046Z,86.40
2017-07-20T00:16:40.149Z,86.50
2017-07-20T00:19:06.256Z,86.70
2017-07-20T00:21:32.409Z,86.60
2017-07-20T00:23:58.512Z,86.70
2017-07-20T00:26:24.639Z,86.30
2017-07-20T00:28:50.755Z,86.70
2017-07-20T00:31:16.858Z,86.70
2017-07-20T00:33:43.000Z,86.70
2017-07-20T00:36:09.832Z,86.80
2017-07-20T00:38:36.773Z,86.90
2017-07-20T00:41:02.893Z,86.90
2017-07-20T00:43:29.018Z,87.20
2017-07-20T00:45:55.113Z,87.40
2017-07-20T00:48:21.226Z,87.40
2017-07-20T00:50:47.341Z,87.30
2017-07-20T00:53:13.517Z,87.40
2017-07-20T00:55:39.648Z,87.70
2017-07-20T00:58:05.760Z,88.10
2017-07-20T01:00:31.917Z,88.10
2017-07-20T01:02:58.037Z,88.60
2017-07-20T01:05:24.185Z,88.90
2017-07-20T01:07:50.268Z,88.90
2017-07-20T01:10:16.414Z,88.90
2017-07-20T01:12:42.546Z,89.00
2017-07-20T01:15:08.653Z,88.60
2017-07-20T01:17:35.525Z,88.50
2017-07-20T01:20:01.634Z,88.50
2017-07-20T01:22:27.789Z,88.70
2017-07-20T01:24:53.877Z,88.40
2017-07-20T01:27:20.333Z,88.40
2017-07-20T01:29:47.172Z,88.70
2017-07-20T01:32:13.409Z,88.30
2017-07-20T01:34:39.522Z,88.50
2017-07-20T01:37:05.637Z,88.30
2017-07-20T01:39:31.805Z,88.30
2017-07-20T01:41:57.932Z,88.00
2017-07-20T01:44:24.812Z,87.40
2017-07-20T01:46:50.946Z,87.70
2017-07-20T01:49:17.062Z,87.50
2017-07-20T01:51:43.198Z,87.70
2017-07-20T01:54:09.409Z,87.60
2017-07-20T01:56:35.557Z,87.50
2017-07-20T01:59:01.658Z,87.40
2017-07-20T02:01:28.597Z,87.00
2017-07-20T02:03:54.718Z,87.00
2017-07-20T02:06:20.853Z,86.80
2017-07-20T02:08:46.993Z,86.70
2017-07-20T02:11:13.192Z,86.40
2017-07-20T02:13:39.304Z,86.60
2017-07-20T02:16:05.433Z,86.70
2017-07-20T02:18:31.534Z,86.70
2017-07-20T02:20:57.673Z,86.80
2017-07-20T02:23:24.509Z,87.70
2017-07-20T02:28:21.601Z,86.80
2017-07-20T02:30:47.633Z,86.70
2017-07-20T02:33:13.672Z,87.40
2017-07-20T02:35:40.519Z,86.70
2017-07-20T02:38:06.545Z,86.60
2017-07-20T02:40:32.577Z,87.10
2017-07-20T02:42:58.620Z,87.10
2017-07-20T02:45:24.677Z,87.00
2017-07-20T02:47:50.705Z,87.70
2017-07-20T02:50:16.804Z,87.70
2017-07-20T02:52:42.849Z,87.70
2017-07-20T02:55:08.877Z,87.80
2017-07-20T02:57:35.676Z,87.80
2017-07-20T03:00:01.700Z,87.90
2017-07-20T03:02:27.783Z,87.90
2017-07-20T03:04:53.821Z,87.90
2017-07-20T03:07:19.880Z,87.80
2017-07-20T03:09:45.972Z,88.10
2017-07-20T03:12:12.740Z,87.90
2017-07-20T03:14:38.764Z,87.90
2017-07-20T03:17:04.773Z,87.80
2017-07-20T03:19:30.817Z,88.10
2017-07-20T03:22:09.057Z,88.10
2017-07-20T03:24:35.143Z,88.10
2017-07-20T03:27:01.152Z,88.00
2017-07-20T03:29:27.205Z,88.00
2017-07-20T03:31:53.236Z,87.90
2017-07-20T03:34:19.284Z,88.20
2017-07-20T03:36:45.404Z,88.10
2017-07-20T03:39:11.455Z,88.00
2017-07-20T03:41:37.489Z,87.80
2017-07-20T03:44:03.633Z,88.00
2017-07-20T03:46:29.653Z,88.00
2017-07-20T03:48:55.712Z,87.90
2017-07-20T03:51:21.761Z,88.10
2017-07-20T03:53:47.777Z,88.40
2017-07-20T03:56:13.828Z,88.40
2017-07-20T03:58:39.842Z,88.10
2017-07-20T04:01:05.877Z,87.90
2017-07-20T04:03:31.893Z,88.00
2017-07-20T04:05:57.937Z,87.80
2017-07-20T04:08:23.957Z,87.80
2017-07-20T04:10:50.008Z,88.00
2017-07-20T04:13:16.053Z,87.60
2017-07-20T04:15:42.840Z,87.70
2017-07-20T04:18:08.864Z,87.70
2017-07-20T04:20:34.900Z,87.30
2017-07-20T04:23:00.947Z,87.00
2017-07-20T04:25:26.993Z,86.80
2017-07-20T04:27:53.042Z,86.80
2017-07-20T04:30:19.113Z,86.80
2017-07-20T04:32:45.139Z,86.50
2017-07-20T04:35:11.304Z,86.00
2017-07-20T04:37:37.355Z,86.10
2017-07-20T04:40:03.392Z,86.50
2017-07-20T04:42:29.494Z,86.40
2017-07-20T04:44:56.271Z,86.30
2017-07-20T04:47:22.340Z,86.30
2017-07-20T04:49:48.388Z,86.10
2017-07-20T04:52:14.404Z,86.30
2017-07-20T04:54:40.510Z,86.10
2017-07-20T04:57:06.561Z,85.90
2017-07-20T04:59:32.705Z,85.60
2017-07-20T05:01:58.729Z,85.60
2017-07-20T05:04:24.779Z,85.80
2017-07-20T05:06:50.814Z,86.30
2017-07-20T05:09:16.837Z,85.50
2017-07-20T05:11:42.953Z,85.50
2017-07-20T05:14:08.981Z,85.00
2017-07-20T05:16:35.082Z,86.00
2017-07-20T05:19:01.121Z,85.40
2017-07-20T05:21:27.140Z,84.70
2017-07-20T05:23:53.176Z,84.40
2017-07-20T05:26:19.189Z,84.60
2017-07-20T05:28:45.228Z,84.90
2017-07-20T05:31:12.055Z,84.50
2017-07-20T05:33:38.203Z,84.40
2017-07-20T05:36:04.247Z,84.10
2017-07-20T05:38:30.309Z,84.10
2017-07-20T05:40:56.380Z,83.60
2017-07-20T05:43:22.425Z,83.60
2017-07-20T05:45:48.506Z,82.90
2017-07-20T05:48:15.282Z,82.70
2017-07-20T05:50:41.301Z,82.20
2017-07-20T05:53:07.337Z,82.20
2017-07-20T05:55:33.368Z,82.00
2017-07-20T05:57:59.532Z,81.50
2017-07-20T06:00:25.560Z,81.50
2017-07-20T06:02:51.785Z,82.50
2017-07-20T06:05:17.845Z,81.80
2017-07-20T06:07:43.868Z,81.70
2017-07-20T06:10:09.916Z,81.70
2017-07-20T06:12:36.256Z,80.40
2017-07-20T06:15:03.120Z,81.00
2017-07-20T06:19:52.200Z,81.50
2017-07-20T06:22:18.245Z,80.50
2017-07-20T06:24:44.305Z,80.40
2017-07-20T06:27:10.459Z,80.30
2017-07-20T06:29:36.713Z,80.30
2017-07-20T06:32:02.898Z,80.00
2017-07-20T06:34:29.176Z,80.70
2017-07-20T06:36:55.234Z,80.50
2017-07-20T06:39:21.406Z,80.60
2017-07-20T06:41:47.458Z,79.40
2017-07-20T06:44:13.631Z,80.10
2017-07-20T06:46:39.739Z,80.70
2017-07-20T06:49:05.861Z,81.30
2017-07-20T06:51:31.925Z,80.00
2017-07-20T06:53:58.047Z,79.90
2017-07-20T06:56:24.153Z,80.30
2017-07-20T06:58:50.194Z,80.80
2017-07-20T07:01:16.253Z,80.30
2017-07-20T07:03:42.403Z,80.50
2017-07-20T07:06:08.477Z,79.70
2017-07-20T07:08:34.527Z,80.00
2017-07-20T07:11:00.657Z,78.40
2017-07-20T07:13:26.738Z,79.40
2017-07-20T07:15:52.904Z,78.30
2017-07-20T07:18:18.982Z,77.50
2017-07-20T07:20:45.794Z,76.80
2017-07-20T07:23:11.850Z,76.80
2017-07-20T07:25:37.898Z,76.10
2017-07-20T07:28:04.034Z,78.40
2017-07-20T07:30:30.151Z,76.70
2017-07-20T07:32:56.272Z,77.60
2017-07-20T07:35:22.369Z,78.40
2017-07-20T07:37:48.489Z,78.70
2017-07-20T07:40:14.533Z,78.60
2017-07-20T07:42:40.626Z,78.10
2017-07-20T07:45:06.686Z,79.20
2017-07-20T07:47:32.782Z,79.10
2017-07-20T07:49:58.938Z,79.10
2017-07-20T07:52:25.075Z,79.40
2017-07-20T07:54:51.124Z,79.80
2017-07-20T07:57:17.319Z,80.10
2017-07-20T07:59:43.390Z,80.40
2017-07-20T08:02:09.443Z,80.40
2017-07-20T08:04:36.250Z,80.00
2017-07-20T08:07:02.345Z,79.40
2017-07-20T08:09:28.473Z,79.80
2017-07-20T08:11:54.513Z,79.70
2017-07-20T08:14:20.577Z,80.30
2017-07-20T08:16:46.609Z,80.10
2017-07-20T08:19:13.427Z,79.70
2017-07-20T08:21:39.507Z,79.70
2017-07-20T08:24:05.581Z,80.00
2017-07-20T08:26:31.624Z,80.80
2017-07-20T08:28:58.409Z,80.00
2017-07-20T08:31:24.488Z,80.00
2017-07-20T08:33:51.277Z,80.40
2017-07-20T08:36:17.378Z,80.30
2017-07-20T08:38:43.445Z,80.30
2017-07-20T08:41:09.514Z,81.30
2017-07-20T08:43:35.545Z,80.50
2017-07-20T08:46:01.589Z,80.50
2017-07-20T08:48:27.639Z,80.90
2017-07-20T08:50:53.704Z,81.00
2017-07-20T08:53:20.506Z,81.60
2017-07-20T08:55:46.570Z,81.60
2017-07-20T08:58:13.594Z,82.20
2017-07-20T09:00:39.687Z,81.80
2017-07-20T09:03:05.733Z,82.90
2017-07-20T09:05:31.801Z,81.70
2017-07-20T09:07:57.854Z,82.50
2017-07-20T09:10:23.917Z,83.20
2017-07-20T09:12:49.985Z,84.10
2017-07-20T09:15:16.034Z,83.30
2017-07-20T09:17:42.122Z,83.90
2017-07-20T09:20:08.206Z,84.30
2017-07-20T09:22:34.262Z,84.00
2017-07-20T09:25:01.079Z,84.30
2017-07-20T09:27:27.148Z,84.20
2017-07-20T09:29:53.223Z,83.80
2017-07-20T09:32:19.342Z,82.70
2017-07-20T09:34:45.411Z,83.60
2017-07-20T09:37:12.225Z,83.00
2017-07-20T09:39:38.274Z,83.00
2017-07-20T09:42:05.091Z,83.50
2017-07-20T09:44:31.141Z,83.50
2017-07-20T09:46:57.954Z,82.40
2017-07-20T09:49:23.993Z,82.50
2017-07-20T09:51:50.837Z,82.50
2017-07-20T09:54:17.625Z,83.10
2017-07-20T09:56:44.138Z,82.80
2017-07-20T09:59:10.195Z,81.80
2017-07-20T10:01:36.257Z,82.40
2017-07-20T10:04:02.332Z,79.30
2017-07-20T10:06:28.490Z,81.90
2017-07-20T10:08:54.550Z,81.20
2017-07-20T10:11:21.358Z,78.60
2017-07-20T10:13:47.414Z,78.50
2017-07-20T10:16:13.453Z,79.30
2017-07-20T10:18:39.533Z,81.60
2017-07-20T10:21:05.589Z,79.90
2017-07-20T10:23:32.386Z,80.00
2017-07-20T10:25:58.425Z,80.00
2017-07-20T10:28:24.482Z,79.60
2017-07-20T10:30:50.642Z,81.70
2017-07-20T10:33:16.771Z,81.40
2017-07-20T10:35:42.834Z,80.50
2017-07-20T10:38:08.918Z,80.40
2017-07-20T10:40:35.014Z,79.60
2017-07-20T10:43:01.083Z,79.80
2017-07-20T10:45:27.141Z,80.60
2017-07-20T10:47:54.022Z,81.30
2017-07-20T10:50:20.058Z,81.30
2017-07-20T10:52:46.137Z,82.10
2017-07-20T10:55:27.142Z,81.10
2017-07-20T10:57:53.219Z,81.00
2017-07-20T11:00:19.274Z,79.80
2017-07-20T11:02:45.334Z,80.50
2017-07-20T11:05:11.426Z,80.80
2017-07-20T11:07:37.498Z,81.00
2017-07-20T11:10:03.554Z,81.70
2017-07-20T11:12:30.438Z,80.70
2017-07-20T11:14:56.478Z,80.50
2017-07-20T11:17:22.539Z,80.70
2017-07-20T11:19:48.598Z,81.40
2017-07-20T11:22:14.693Z,79.90
2017-07-20T11:24:41.503Z,81.30
2017-07-20T11:27:07.570Z,81.30
2017-07-20T11:29:34.419Z,79.50
2017-07-20T11:32:00.478Z,79.50
2017-07-20T11:34:26.543Z,79.10
2017-07-20T11:36:52.601Z,80.50
2017-07-20T11:39:18.690Z,80.40
2017-07-20T11:41:44.770Z,79.20
2017-07-20T11:44:10.826Z,79.70
2017-07-20T11:46:36.886Z,78.90
2017-07-20T11:49:03.702Z,78.70
2017-07-20T11:51:29.752Z,78.60
2017-07-20T11:53:55.818Z,78.70
2017-07-20T11:56:21.914Z,77.90
2017-07-20T11:58:48.270Z,80.40
2017-07-20T12:01:14.331Z,79.00
2017-07-20T12:03:40.400Z,79.50
2017-07-20T12:06:06.445Z,76.80
2017-07-20T12:08:32.512Z,75.30
2017-07-20T12:10:58.557Z,74.30
2017-07-20T12:13:24.624Z,75.00
2017-07-20T12:15:50.670Z,75.60
2017-07-20T12:18:16.733Z,73.90
2017-07-20T12:20:42.786Z,76.50
2017-07-20T12:23:08.869Z,74.30
2017-07-20T12:25:35.655Z,73.90
2017-07-20T12:28:01.726Z,73.80
2017-07-20T12:30:28.574Z,70.00
2017-07-20T12:32:55.389Z,70.10
2017-07-20T12:35:21.445Z,70.10
2017-07-20T12:37:47.503Z,70.30
2017-07-20T12:40:13.567Z,71.00
2017-07-20T12:42:39.625Z,72.20
2017-07-20T12:45:05.695Z,69.50
2017-07-20T12:47:31.749Z,70.90
2017-07-20T12:49:57.817Z,69.70
2017-07-20T12:52:23.875Z,68.20
2017-07-20T12:54:49.958Z,65.90
2017-07-20T12:57:16.042Z,66.90
2017-07-20T12:59:42.118Z,67.90
2017-07-20T13:02:08.174Z,65.00
2017-07-20T13:04:34.235Z,68.70
2017-07-20T13:07:01.026Z,66.50
2017-07-20T13:09:27.094Z,66.40
2017-07-20T13:11:53.138Z,64.20
2017-07-20T13:14:19.208Z,65.40
2017-07-20T13:16:45.249Z,67.90
2017-07-20T13:19:12.097Z,67.00
2017-07-20T13:21:38.149Z,66.60
2017-07-20T13:24:04.213Z,70.40
2017-07-20T13:26:30.281Z,68.90
2017-07-20T13:28:57.070Z,66.50
2017-07-20T13:31:23.154Z,66.30
2017-07-20T13:33:49.943Z,63.40
2017-07-20T13:36:16.008Z,63.50
2017-07-20T13:38:42.045Z,58.80
2017-07-20T13:41:08.117Z,59.70
2017-07-20T13:43:34.168Z,58.80
2017-07-20T13:46:00.228Z,58.90
2017-07-20T13:48:26.314Z,58.70
2017-07-20T13:50:52.401Z,56.10
2017-07-20T13:53:18.512Z,56.40
2017-07-20T13:55:44.561Z,56.50
2017-07-20T13:58:10.626Z,55.90
2017-07-20T14:00:36.802Z,55.10
2017-07-20T14:03:02.866Z,54.70
2017-07-20T14:05:29.070Z,56.10
2017-07-20T14:07:55.122Z,56.10
2017-07-20T14:10:21.198Z,55.30
2017-07-20T14:12:47.267Z,54.40
2017-07-20T14:15:13.334Z,53.20
2017-07-20T14:17:39.366Z,52.10
2017-07-20T14:20:05.478Z,51.10
2017-07-20T14:22:31.534Z,50.70
2017-07-20T14:24:57.621Z,51.00
2017-07-20T14:27:23.709Z,49.10
2017-07-20T14:29:49.849Z,48.30
2017-07-20T14:32:15.926Z,44.90
2017-07-20T14:34:42.064Z,47.30
2017-07-20T14:37:08.099Z,48.10
2017-07-20T14:39:34.154Z,47.70
2017-07-20T14:42:00.199Z,47.40
2017-07-20T14:44:26.250Z,47.30
2017-07-20T14:46:52.331Z,46.20
2017-07-20T14:49:19.233Z,49.20
2017-07-20T14:51:45.335Z,49.20
2017-07-20T14:54:11.406Z,49.40
2017-07-20T14:56:37.465Z,50.60
2017-07-20T14:59:04.262Z,52.50
2017-07-20T15:01:30.308Z,52.40
2017-07-20T15:03:56.446Z,53.90
2017-07-20T15:06:23.221Z,53.50
2017-07-20T15:08:49.274Z,53.40
2017-07-20T15:11:15.363Z,53.80
2017-07-20T15:13:41.510Z,50.80
2017-07-20T15:16:07.588Z,48.70
2017-07-20T15:18:34.418Z,46.10
2017-07-20T15:21:01.253Z,44.50
2017-07-20T15:23:27.342Z,43.80
2017-07-20T15:25:53.462Z,42.70
2017-07-20T15:28:19.586Z,42.80
2017-07-20T15:30:45.646Z,45.10
2017-07-20T15:33:11.703Z,46.30
2017-07-20T15:35:38.554Z,47.80
2017-07-20T15:38:04.705Z,47.90
2017-07-20T15:40:30.893Z,46.70
2017-07-20T15:42:57.803Z,45.20
2017-07-20T15:45:23.849Z,45.10
2017-07-20T15:47:50.394Z,43.70
2017-07-20T15:50:17.263Z,43.10
2017-07-20T15:52:43.328Z,43.10
2017-07-20T15:55:09.396Z,40.80
2017-07-20T15:57:43.038Z,41.70
2017-07-20T16:00:09.109Z,41.70
2017-07-20T16:02:35.169Z,41.00
2017-07-20T16:05:01.231Z,41.90
2017-07-20T16:07:27.386Z,41.20
2017-07-20T16:09:53.433Z,39.20
2017-07-20T16:12:19.544Z,39.60
2017-07-20T16:14:45.606Z,41.40
2017-07-20T16:17:11.747Z,43.50
2017-07-20T16:19:37.794Z,44.80
2017-07-20T16:22:03.857Z,46.40
2017-07-20T16:24:30.030Z,47.90
2017-07-20T16:26:56.090Z,50.20
2017-07-20T16:29:22.154Z,50.20
2017-07-20T16:31:48.194Z,51.60
2017-07-20T16:34:14.462Z,51.80
2017-07-20T16:36:41.281Z,54.30
2017-07-20T16:39:07.334Z,54.30
2017-07-20T16:41:34.154Z,55.90
2017-07-20T16:44:00.201Z,55.80
2017-07-20T16:46:26.262Z,56.30
2017-07-20T16:48:52.299Z,56.90
2017-07-20T16:51:18.621Z,57.60
2017-07-20T16:53:44.662Z,58.40
2017-07-20T16:56:10.754Z,58.80
2017-07-20T16:58:36.830Z,58.30
2017-07-20T17:01:02.893Z,58.50
2017-07-20T17:03:28.990Z,58.40
2017-07-20T17:05:55.798Z,60.00
2017-07-20T17:08:21.865Z,59.40
2017-07-20T17:10:48.666Z,59.70
2017-07-20T17:13:14.756Z,59.70
2017-07-20T17:15:40.827Z,60.40
2017-07-20T17:18:06.909Z,61.10
2017-07-20T17:20:32.957Z,62.20
2017-07-20T17:22:59.077Z,63.20
2017-07-20T17:25:25.126Z,64.50
2017-07-20T17:27:51.215Z,66.10
2017-07-20T17:30:17.304Z,66.70
2017-07-20T17:32:43.401Z,66.50
2017-07-20T17:35:09.449Z,65.30
2017-07-20T17:37:36.229Z,65.80
2017-07-20T17:40:02.310Z,65.70
2017-07-20T17:42:28.372Z,66.20
2017-07-20T17:44:54.665Z,66.40
2017-07-20T17:47:21.469Z,67.40
2017-07-20T17:49:47.549Z,66.90
2017-07-20T17:52:13.598Z,66.60
2017-07-20T17:54:39.650Z,65.80
2017-07-20T17:57:05.726Z,66.70
2017-07-20T17:59:31.804Z,66.60
2017-07-20T18:01:57.885Z,65.40
2017-07-20T18:04:23.942Z,63.90
2017-07-20T18:06:50.039Z,63.70
2017-07-20T18:09:16.107Z,63.30
2017-07-20T18:11:42.179Z,63.50
2017-07-20T18:14:08.222Z,64.00
2017-07-20T18:16:34.267Z,64.40
2017-07-20T18:19:00.334Z,63.30
2017-07-20T18:21:26.426Z,62.60
2017-07-20T18:23:52.498Z,62.90
2017-07-20T18:26:18.566Z,61.70
2017-07-20T18:28:44.669Z,60.30
2017-07-20T18:31:10.713Z,60.00
2017-07-20T18:33:36.786Z,58.80
2017-07-20T18:36:02.849Z,58.40
2017-07-20T18:38:28.942Z,57.70
2017-07-20T18:40:54.986Z,57.90
2017-07-20T18:43:21.053Z,58.00
2017-07-20T18:45:47.101Z,58.90
2017-07-20T18:48:13.920Z,59.70
2017-07-20T18:50:39.979Z,59.60
2017-07-20T18:53:06.043Z,60.30
2017-07-20T18:55:32.098Z,61.00
2017-07-20T18:57:58.215Z,61.20
2017-07-20T19:00:24.269Z,62.10
2017-07-20T19:02:51.082Z,63.50
2017-07-20T19:05:17.162Z,63.50
2017-07-20T19:07:43.227Z,63.00
2017-07-20T19:10:09.269Z,63.70
2017-07-20T19:12:35.330Z,64.70
2017-07-20T19:15:01.382Z,65.40
2017-07-20T19:17:27.451Z,65.50
2017-07-20T19:19:53.493Z,65.80
2017-07-20T19:22:19.554Z,66.10
2017-07-20T19:24:45.596Z,67.10
2017-07-20T19:27:11.676Z,67.50
2017-07-20T19:29:37.731Z,68.10
2017-07-20T19:32:03.815Z,68.40
2017-07-20T19:34:29.889Z,69.50
2017-07-20T19:36:55.951Z,69.00
2017-07-20T19:39:22.000Z,69.60
2017-07-20T19:41:48.074Z,70.30
2017-07-20T19:44:14.147Z,70.50
2017-07-20T19:46:40.214Z,70.60
2017-07-20T19:49:06.265Z,71.10
2017-07-20T19:51:32.310Z,71.70
2017-07-20T19:53:58.389Z,71.80
2017-07-20T19:56:24.469Z,72.40
2017-07-20T19:58:50.526Z,72.70
2017-07-20T20:01:16.573Z,72.70
2017-07-20T20:03:42.631Z,73.00
2017-07-20T20:06:08.702Z,73.50
2017-07-20T20:08:34.770Z,73.80
2017-07-20T20:11:01.558Z,74.10
2017-07-20T20:13:27.639Z,74.10
2017-07-20T20:15:53.682Z,73.80
2017-07-20T20:18:19.750Z,73.90
2017-07-20T20:20:45.802Z,74.50
2017-07-20T20:23:12.602Z,74.50
2017-07-20T20:25:38.650Z,74.50
2017-07-20T20:28:04.710Z,74.60
2017-07-20T20:30:30.768Z,74.40
2017-07-20T20:32:56.877Z,74.80
2017-07-20T20:35:22.917Z,74.70
2017-07-20T20:37:48.958Z,75.20
2017-07-20T20:40:15.017Z,75.10
2017-07-20T20:42:41.871Z,75.60
2017-07-20T20:45:07.954Z,75.50
2017-07-20T20:47:34.026Z,75.40
2017-07-20T20:50:00.102Z,75.70
2017-07-20T20:52:26.146Z,75.80
2017-07-20T20:54:52.972Z,76.20
2017-07-20T20:57:19.062Z,76.10
2017-07-20T20:59:45.141Z,76.50
2017-07-20T21:02:11.943Z,76.10
2017-07-20T21:04:38.058Z,76.00
2017-07-20T21:07:04.102Z,76.00
2017-07-20T21:09:30.207Z,76.40
2017-07-20T21:11:56.355Z,76.40
2017-07-20T21:14:22.414Z,76.30
2017-07-20T21:16:48.506Z,76.00
2017-07-20T21:19:14.550Z,76.20
2017-07-20T21:21:40.610Z,76.00
2017-07-20T21:24:07.899Z,76.00
2017-07-20T21:26:33.970Z,76.20
2017-07-20T21:29:00.022Z,76.20
2017-07-20T21:31:26.101Z,76.10
2017-07-20T21:33:52.382Z,76.20
2017-07-20T21:36:18.451Z,76.10
2017-07-20T21:38:44.519Z,76.50
2017-07-20T21:41:10.621Z,77.30
2017-07-20T21:43:36.678Z,77.90
2017-07-20T21:46:02.739Z,78.30
2017-07-20T21:48:28.806Z,79.10
2017-07-20T21:50:54.873Z,79.40
2017-07-20T21:53:20.934Z,79.80
2017-07-20T21:55:47.759Z,80.10
2017-07-20T21:58:14.561Z,80.80
2017-07-20T22:00:40.631Z,80.80
2017-07-20T22:03:06.670Z,80.80
2017-07-20T22:05:33.482Z,81.30
2017-07-20T22:07:59.631Z,81.20
2017-07-20T22:10:25.839Z,81.20
2017-07-20T22:12:52.759Z,81.10
2017-07-20T22:15:18.974Z,81.70
2017-07-20T22:17:45.157Z,81.70
2017-07-20T22:20:12.111Z,81.80
2017-07-20T22:22:39.018Z,81.80
2017-07-20T22:25:05.222Z,81.70
2017-07-20T22:27:31.437Z,82.00
2017-07-20T22:29:57.628Z,82.20
2017-07-20T22:32:23.801Z,82.30
2017-07-20T22:34:49.978Z,82.40
2017-07-20T22:37:16.880Z,82.60
2017-07-20T22:39:43.098Z,82.60
2017-07-20T22:42:09.289Z,82.40
2017-07-20T22:44:36.225Z,81.40
2017-07-20T22:47:03.165Z,80.50
2017-07-20T22:49:30.123Z,80.80
2017-07-20T22:51:57.032Z,80.00
2017-07-20T22:54:23.202Z,79.90
2017-07-20T22:56:49.406Z,79.60
2017-07-20T22:59:15.550Z,79.30
2017-07-20T23:01:42.485Z,79.20
2017-07-20T23:04:09.401Z,79.20
2017-07-20T23:06:35.607Z,79.20
2017-07-20T23:09:01.776Z,79.10
2017-07-20T23:11:28.722Z,79.10
2017-07-20T23:13:54.926Z,78.90
2017-07-20T23:16:21.147Z,79.10
2017-07-20T23:18:47.340Z,79.20
2017-07-20T23:21:13.537Z,79.10
2017-07-20T23:23:39.715Z,79.20
2017-07-20T23:26:05.900Z,79.20
2017-07-20T23:28:32.813Z,79.10
2017-07-20T23:30:59.019Z,79.10
2017-07-20T23:33:25.202Z,79.40
2017-07-20T23:35:51.443Z,80.30
2017-07-20T23:38:17.626Z,79.80
2017-07-20T23:40:43.795Z,80.00
2017-07-20T23:43:10.008Z,80.10
2017-07-20T23:45:36.927Z,80.60
2017-07-20T23:48:03.133Z,80.40
2017-07-20T23:50:29.326Z,80.40
2017-07-20T23:52:55.513Z,80.50
2017-07-20T23:55:21.705Z,80.70
2017-07-20T23:57:47.897Z,80.80
